sensor_id;sensor_type;location;lat;lon;timestamp;temperature;humidity
435;DHT22;204;48.942;9.256;2023-04-03T00:00:11;5.20;1.00
435;DHT22;204;48.942;9.256;2023-04-03T00:02:37;5.20;1.00
435;DHT22;204;48.942;9.256;2023-04-03T00:05:02;5.20;1.00
435;DHT22;204;48.942;9.256;2023-04-03T00:07:28;5.20;1.00
435;DHT22;204;48.942;9.256;2023-04-03T00:09:54;5.20;1.00
435;DHT22;204;48.942;9.256;2023-04-03T00:12:19;5.20;1.00
435;DHT22;204;48.942;9.256;2023-04-03T00:14:45;5.20;1.00
435;DHT22;204;48.942;9.256;2023-04-03T00:17:10;5.20;1.00
435;DHT22;204;48.942;9.256;2023-04-03T00:19:36;5.30;1.00
435;DHT22;204;48.942;9.256;2023-04-03T00:22:01;5.30;1.00
435;DHT22;204;48.942;9.256;2023-04-03T00:24:27;5.30;1.00
435;DHT22;204;48.942;9.256;2023-04-03T00:26:53;5.30;1.00
435;DHT22;204;48.942;9.256;2023-04-03T00:29:18;5.40;1.00
435;DHT22;204;48.942;9.256;2023-04-03T00:31:44;5.30;1.00
435;DHT22;204;48.942;9.256;2023-04-03T00:34:09;5.30;1.00
435;DHT22;204;48.942;9.256;2023-04-03T00:36:35;5.30;1.00
435;DHT22;204;48.942;9.256;2023-04-03T00:39:01;5.30;1.00
435;DHT22;204;48.942;9.256;2023-04-03T00:41:26;5.20;1.00
435;DHT22;204;48.942;9.256;2023-04-03T00:43:52;5.20;1.00
435;DHT22;204;48.942;9.256;2023-04-03T00:46:18;5.10;1.00
435;DHT22;204;48.942;9.256;2023-04-03T00:48:45;5.20;1.00
435;DHT22;204;48.942;9.256;2023-04-03T00:51:14;5.20;1.00
435;DHT22;204;48.942;9.256;2023-04-03T00:53:48;5.10;1.00
435;DHT22;204;48.942;9.256;2023-04-03T00:56:18;5.10;1.00
435;DHT22;204;48.942;9.256;2023-04-03T00:58:51;5.00;1.00
435;DHT22;204;48.942;9.256;2023-04-03T01:01:21;5.00;1.00
435;DHT22;204;48.942;9.256;2023-04-03T01:03:48;5.00;1.00
435;DHT22;204;48.942;9.256;2023-04-03T01:06:17;4.90;1.00
435;DHT22;204;48.942;9.256;2023-04-03T01:08:43;4.90;1.00
435;DHT22;204;48.942;9.256;2023-04-03T01:11:09;4.90;1.00
435;DHT22;204;48.942;9.256;2023-04-03T01:13:35;4.90;1.00
435;DHT22;204;48.942;9.256;2023-04-03T01:16:02;4.90;1.00
435;DHT22;204;48.942;9.256;2023-04-03T01:18:28;4.80;1.00
435;DHT22;204;48.942;9.256;2023-04-03T01:26:19;4.80;1.00
435;DHT22;204;48.942;9.256;2023-04-03T01:28:45;4.70;1.00
435;DHT22;204;48.942;9.256;2023-04-03T01:33:46;4.70;1.00
435;DHT22;204;48.942;9.256;2023-04-03T01:36:19;4.60;1.00
435;DHT22;204;48.942;9.256;2023-04-03T01:38:46;4.60;1.00
435;DHT22;204;48.942;9.256;2023-04-03T01:41:11;4.50;1.00
435;DHT22;204;48.942;9.256;2023-04-03T01:43:37;4.50;1.00
435;DHT22;204;48.942;9.256;2023-04-03T01:46:02;4.40;1.00
435;DHT22;204;48.942;9.256;2023-04-03T01:48:28;4.40;1.00
435;DHT22;204;48.942;9.256;2023-04-03T01:50:54;4.40;1.00
435;DHT22;204;48.942;9.256;2023-04-03T01:53:21;4.40;1.00
435;DHT22;204;48.942;9.256;2023-04-03T01:55:46;4.40;1.00
435;DHT22;204;48.942;9.256;2023-04-03T01:58:12;4.40;1.00
435;DHT22;204;48.942;9.256;2023-04-03T02:00:38;4.40;1.00
435;DHT22;204;48.942;9.256;2023-04-03T02:03:03;4.40;1.00
435;DHT22;204;48.942;9.256;2023-04-03T02:05:29;4.40;1.00
435;DHT22;204;48.942;9.256;2023-04-03T02:07:54;4.40;1.00
435;DHT22;204;48.942;9.256;2023-04-03T02:10:20;4.30;1.00
435;DHT22;204;48.942;9.256;2023-04-03T02:12:46;4.30;1.00
435;DHT22;204;48.942;9.256;2023-04-03T02:15:11;4.30;1.00
435;DHT22;204;48.942;9.256;2023-04-03T02:17:37;4.30;1.00
435;DHT22;204;48.942;9.256;2023-04-03T02:20:04;4.40;1.00
435;DHT22;204;48.942;9.256;2023-04-03T02:22:29;4.40;1.00
435;DHT22;204;48.942;9.256;2023-04-03T02:24:55;4.50;1.00
435;DHT22;204;48.942;9.256;2023-04-03T02:27:21;4.60;1.00
435;DHT22;204;48.942;9.256;2023-04-03T02:29:46;4.60;1.00
435;DHT22;204;48.942;9.256;2023-04-03T02:32:12;4.80;1.00
435;DHT22;204;48.942;9.256;2023-04-03T02:34:37;4.80;1.00
435;DHT22;204;48.942;9.256;2023-04-03T02:37:03;4.90;1.00
435;DHT22;204;48.942;9.256;2023-04-03T02:39:28;4.90;1.00
435;DHT22;204;48.942;9.256;2023-04-03T02:41:54;4.90;1.00
435;DHT22;204;48.942;9.256;2023-04-03T02:44:20;4.90;1.00
435;DHT22;204;48.942;9.256;2023-04-03T02:46:45;5.00;1.00
435;DHT22;204;48.942;9.256;2023-04-03T02:49:11;5.00;1.00
435;DHT22;204;48.942;9.256;2023-04-03T02:51:37;5.00;1.00
435;DHT22;204;48.942;9.256;2023-04-03T02:54:02;5.10;1.00
435;DHT22;204;48.942;9.256;2023-04-03T02:56:28;5.00;1.00
435;DHT22;204;48.942;9.256;2023-04-03T02:58:54;5.10;1.00
435;DHT22;204;48.942;9.256;2023-04-03T03:01:19;5.10;1.00
435;DHT22;204;48.942;9.256;2023-04-03T03:03:45;5.10;1.00
435;DHT22;204;48.942;9.256;2023-04-03T03:06:13;5.10;1.00
435;DHT22;204;48.942;9.256;2023-04-03T03:08:39;5.10;1.00
435;DHT22;204;48.942;9.256;2023-04-03T03:11:05;5.20;1.00
435;DHT22;204;48.942;9.256;2023-04-03T03:13:31;5.10;1.00
435;DHT22;204;48.942;9.256;2023-04-03T03:15:57;5.20;1.00
435;DHT22;204;48.942;9.256;2023-04-03T03:18:23;5.20;1.00
435;DHT22;204;48.942;9.256;2023-04-03T03:20:52;5.20;1.00
435;DHT22;204;48.942;9.256;2023-04-03T03:23:18;5.20;1.00
435;DHT22;204;48.942;9.256;2023-04-03T03:25:44;5.20;1.00
435;DHT22;204;48.942;9.256;2023-04-03T03:28:09;5.10;1.00
435;DHT22;204;48.942;9.256;2023-04-03T03:30:35;5.10;1.00
435;DHT22;204;48.942;9.256;2023-04-03T03:33:01;5.10;1.00
435;DHT22;204;48.942;9.256;2023-04-03T03:35:26;5.10;1.00
435;DHT22;204;48.942;9.256;2023-04-03T03:37:52;5.10;1.00
435;DHT22;204;48.942;9.256;2023-04-03T03:40:18;5.10;1.00
435;DHT22;204;48.942;9.256;2023-04-03T03:42:43;5.10;1.00
435;DHT22;204;48.942;9.256;2023-04-03T03:45:09;5.10;1.00
435;DHT22;204;48.942;9.256;2023-04-03T03:47:35;5.10;1.00
435;DHT22;204;48.942;9.256;2023-04-03T03:50:01;5.10;1.00
435;DHT22;204;48.942;9.256;2023-04-03T03:52:27;5.10;1.00
435;DHT22;204;48.942;9.256;2023-04-03T03:54:52;5.10;1.00
435;DHT22;204;48.942;9.256;2023-04-03T03:57:18;5.20;1.00
435;DHT22;204;48.942;9.256;2023-04-03T03:59:43;5.20;1.00
435;DHT22;204;48.942;9.256;2023-04-03T04:02:10;5.20;1.00
435;DHT22;204;48.942;9.256;2023-04-03T04:04:36;5.20;1.00
435;DHT22;204;48.942;9.256;2023-04-03T04:07:03;5.20;1.00
435;DHT22;204;48.942;9.256;2023-04-03T04:09:28;5.20;1.00
435;DHT22;204;48.942;9.256;2023-04-03T04:11:54;5.30;1.00
435;DHT22;204;48.942;9.256;2023-04-03T04:14:20;5.30;1.00
435;DHT22;204;48.942;9.256;2023-04-03T04:16:46;5.20;1.00
435;DHT22;204;48.942;9.256;2023-04-03T04:19:12;5.20;1.00
435;DHT22;204;48.942;9.256;2023-04-03T04:21:38;5.20;1.00
435;DHT22;204;48.942;9.256;2023-04-03T04:24:05;5.20;1.00
435;DHT22;204;48.942;9.256;2023-04-03T04:26:30;5.20;1.00
435;DHT22;204;48.942;9.256;2023-04-03T04:28:56;5.20;1.00
435;DHT22;204;48.942;9.256;2023-04-03T04:31:22;5.30;1.00
435;DHT22;204;48.942;9.256;2023-04-03T04:33:47;5.20;1.00
435;DHT22;204;48.942;9.256;2023-04-03T04:36:13;5.20;1.00
435;DHT22;204;48.942;9.256;2023-04-03T04:38:40;5.20;1.00
435;DHT22;204;48.942;9.256;2023-04-03T04:41:05;5.20;1.00
435;DHT22;204;48.942;9.256;2023-04-03T04:43:31;5.20;1.00
435;DHT22;204;48.942;9.256;2023-04-03T04:46:15;5.20;1.00
435;DHT22;204;48.942;9.256;2023-04-03T04:48:41;5.20;1.00
435;DHT22;204;48.942;9.256;2023-04-03T04:51:07;5.10;1.00
435;DHT22;204;48.942;9.256;2023-04-03T04:53:33;5.10;1.00
435;DHT22;204;48.942;9.256;2023-04-03T04:55:58;5.10;1.00
435;DHT22;204;48.942;9.256;2023-04-03T04:58:24;5.00;1.00
435;DHT22;204;48.942;9.256;2023-04-03T05:01:01;5.00;1.00
435;DHT22;204;48.942;9.256;2023-04-03T05:03:27;4.90;1.00
435;DHT22;204;48.942;9.256;2023-04-03T05:05:52;4.90;1.00
435;DHT22;204;48.942;9.256;2023-04-03T05:08:18;4.80;1.00
435;DHT22;204;48.942;9.256;2023-04-03T05:10:45;4.80;1.00
435;DHT22;204;48.942;9.256;2023-04-03T05:13:11;4.80;1.00
435;DHT22;204;48.942;9.256;2023-04-03T05:15:37;4.70;1.00
435;DHT22;204;48.942;9.256;2023-04-03T05:18:02;4.80;1.00
435;DHT22;204;48.942;9.256;2023-04-03T05:20:28;4.70;1.00
435;DHT22;204;48.942;9.256;2023-04-03T05:22:54;4.70;1.00
435;DHT22;204;48.942;9.256;2023-04-03T05:25:19;4.70;1.00
435;DHT22;204;48.942;9.256;2023-04-03T05:27:45;4.70;1.00
435;DHT22;204;48.942;9.256;2023-04-03T05:30:11;4.70;1.00
435;DHT22;204;48.942;9.256;2023-04-03T05:32:37;4.70;1.00
435;DHT22;204;48.942;9.256;2023-04-03T05:35:03;4.60;1.00
435;DHT22;204;48.942;9.256;2023-04-03T05:37:28;4.70;1.00
435;DHT22;204;48.942;9.256;2023-04-03T05:39:54;4.70;1.00
435;DHT22;204;48.942;9.256;2023-04-03T05:42:19;4.70;1.00
435;DHT22;204;48.942;9.256;2023-04-03T05:44:45;4.80;1.00
435;DHT22;204;48.942;9.256;2023-04-03T05:47:12;4.90;1.00
435;DHT22;204;48.942;9.256;2023-04-03T05:49:38;5.00;1.00
435;DHT22;204;48.942;9.256;2023-04-03T05:52:11;5.00;1.00
435;DHT22;204;48.942;9.256;2023-04-03T05:54:42;5.20;1.00
435;DHT22;204;48.942;9.256;2023-04-03T05:57:08;5.20;1.00
435;DHT22;204;48.942;9.256;2023-04-03T05:59:33;5.30;1.00
435;DHT22;204;48.942;9.256;2023-04-03T06:01:59;5.30;1.00
435;DHT22;204;48.942;9.256;2023-04-03T06:04:25;5.40;1.00
435;DHT22;204;48.942;9.256;2023-04-03T06:06:56;5.50;1.00
435;DHT22;204;48.942;9.256;2023-04-03T06:09:25;5.60;1.00
435;DHT22;204;48.942;9.256;2023-04-03T06:11:52;5.70;1.00
435;DHT22;204;48.942;9.256;2023-04-03T06:14:18;5.80;1.00
435;DHT22;204;48.942;9.256;2023-04-03T06:16:44;5.80;1.00
435;DHT22;204;48.942;9.256;2023-04-03T06:19:11;5.90;1.00
435;DHT22;204;48.942;9.256;2023-04-03T06:21:38;5.90;1.00
435;DHT22;204;48.942;9.256;2023-04-03T06:24:04;5.90;1.00
435;DHT22;204;48.942;9.256;2023-04-03T06:26:31;5.90;1.00
435;DHT22;204;48.942;9.256;2023-04-03T06:28:57;5.90;1.00
435;DHT22;204;48.942;9.256;2023-04-03T06:31:23;5.90;1.00
435;DHT22;204;48.942;9.256;2023-04-03T06:33:48;6.00;1.00
435;DHT22;204;48.942;9.256;2023-04-03T06:36:14;6.10;1.00
435;DHT22;204;48.942;9.256;2023-04-03T06:38:45;6.20;1.00
435;DHT22;204;48.942;9.256;2023-04-03T06:41:11;6.20;1.00
435;DHT22;204;48.942;9.256;2023-04-03T06:43:36;6.30;1.00
435;DHT22;204;48.942;9.256;2023-04-03T06:46:02;6.30;1.00
435;DHT22;204;48.942;9.256;2023-04-03T06:48:28;6.40;1.00
435;DHT22;204;48.942;9.256;2023-04-03T06:50:54;6.40;1.00
435;DHT22;204;48.942;9.256;2023-04-03T06:53:20;6.40;1.00
435;DHT22;204;48.942;9.256;2023-04-03T06:55:45;6.40;1.00
435;DHT22;204;48.942;9.256;2023-04-03T06:58:12;6.50;1.00
435;DHT22;204;48.942;9.256;2023-04-03T07:00:39;6.60;1.00
435;DHT22;204;48.942;9.256;2023-04-03T07:03:04;6.60;1.00
435;DHT22;204;48.942;9.256;2023-04-03T07:05:30;6.70;1.00
435;DHT22;204;48.942;9.256;2023-04-03T07:07:56;6.70;1.00
435;DHT22;204;48.942;9.256;2023-04-03T07:10:22;6.80;1.00
435;DHT22;204;48.942;9.256;2023-04-03T07:12:47;6.90;1.00
435;DHT22;204;48.942;9.256;2023-04-03T07:15:13;6.90;1.00
435;DHT22;204;48.942;9.256;2023-04-03T07:17:39;6.90;1.00
435;DHT22;204;48.942;9.256;2023-04-03T07:20:06;6.90;1.00
435;DHT22;204;48.942;9.256;2023-04-03T07:22:32;6.90;1.00
435;DHT22;204;48.942;9.256;2023-04-03T07:24:58;6.90;1.00
435;DHT22;204;48.942;9.256;2023-04-03T07:27:24;6.80;1.00
435;DHT22;204;48.942;9.256;2023-04-03T07:29:50;6.70;1.00
435;DHT22;204;48.942;9.256;2023-04-03T07:32:17;6.60;1.00
435;DHT22;204;48.942;9.256;2023-04-03T07:34:43;6.50;1.00
435;DHT22;204;48.942;9.256;2023-04-03T07:37:09;6.50;1.00
435;DHT22;204;48.942;9.256;2023-04-03T07:39:35;6.50;1.00
435;DHT22;204;48.942;9.256;2023-04-03T07:42:01;6.50;1.00
435;DHT22;204;48.942;9.256;2023-04-03T07:44:27;6.60;1.00
435;DHT22;204;48.942;9.256;2023-04-03T07:46:53;6.60;1.00
435;DHT22;204;48.942;9.256;2023-04-03T07:49:20;6.70;1.00
435;DHT22;204;48.942;9.256;2023-04-03T07:51:48;6.80;1.00
435;DHT22;204;48.942;9.256;2023-04-03T07:54:14;6.90;1.00
435;DHT22;204;48.942;9.256;2023-04-03T07:56:40;6.90;1.00
435;DHT22;204;48.942;9.256;2023-04-03T07:59:08;6.80;1.00
435;DHT22;204;48.942;9.256;2023-04-03T08:01:34;6.80;1.00
435;DHT22;204;48.942;9.256;2023-04-03T08:04:00;6.90;1.00
435;DHT22;204;48.942;9.256;2023-04-03T08:06:26;7.00;1.00
435;DHT22;204;48.942;9.256;2023-04-03T08:08:51;7.10;1.00
435;DHT22;204;48.942;9.256;2023-04-03T08:11:17;7.10;1.00
435;DHT22;204;48.942;9.256;2023-04-03T08:13:44;7.10;1.00
435;DHT22;204;48.942;9.256;2023-04-03T08:16:11;7.20;1.00
435;DHT22;204;48.942;9.256;2023-04-03T08:18:37;7.30;1.00
435;DHT22;204;48.942;9.256;2023-04-03T08:21:06;7.50;1.00
435;DHT22;204;48.942;9.256;2023-04-03T08:23:32;7.60;1.00
435;DHT22;204;48.942;9.256;2023-04-03T08:25:58;7.70;1.00
435;DHT22;204;48.942;9.256;2023-04-03T08:28:23;7.80;1.00
435;DHT22;204;48.942;9.256;2023-04-03T08:30:49;7.90;1.00
435;DHT22;204;48.942;9.256;2023-04-03T08:33:14;7.90;1.00
435;DHT22;204;48.942;9.256;2023-04-03T08:35:41;7.70;1.00
435;DHT22;204;48.942;9.256;2023-04-03T08:38:08;7.70;1.00
435;DHT22;204;48.942;9.256;2023-04-03T08:40:33;7.70;1.00
435;DHT22;204;48.942;9.256;2023-04-03T08:46:05;8.10;1.00
435;DHT22;204;48.942;9.256;2023-04-03T08:48:40;8.40;1.00
435;DHT22;204;48.942;9.256;2023-04-03T08:51:17;8.50;1.00
435;DHT22;204;48.942;9.256;2023-04-03T08:54:01;8.60;1.00
435;DHT22;204;48.942;9.256;2023-04-03T08:56:30;8.50;1.00
435;DHT22;204;48.942;9.256;2023-04-03T08:59:00;8.30;1.00
435;DHT22;204;48.942;9.256;2023-04-03T09:01:39;8.30;1.00
435;DHT22;204;48.942;9.256;2023-04-03T09:04:14;8.10;1.00
435;DHT22;204;48.942;9.256;2023-04-03T09:06:43;8.10;1.00
435;DHT22;204;48.942;9.256;2023-04-03T09:09:41;8.20;1.00
435;DHT22;204;48.942;9.256;2023-04-03T09:15:25;8.50;1.00
435;DHT22;204;48.942;9.256;2023-04-03T09:23:37;8.70;1.00
435;DHT22;204;48.942;9.256;2023-04-03T09:26:18;8.90;1.00
435;DHT22;204;48.942;9.256;2023-04-03T09:28:45;9.00;1.00
435;DHT22;204;48.942;9.256;2023-04-03T09:33:50;9.10;1.00
435;DHT22;204;48.942;9.256;2023-04-03T09:36:43;9.10;1.00
435;DHT22;204;48.942;9.256;2023-04-03T09:39:15;9.50;1.00
435;DHT22;204;48.942;9.256;2023-04-03T09:41:42;9.90;1.00
435;DHT22;204;48.942;9.256;2023-04-03T09:44:21;10.10;1.00
435;DHT22;204;48.942;9.256;2023-04-03T09:46:48;10.10;1.00
435;DHT22;204;48.942;9.256;2023-04-03T09:49:14;10.00;1.00
435;DHT22;204;48.942;9.256;2023-04-03T09:51:40;10.00;1.00
435;DHT22;204;48.942;9.256;2023-04-03T09:54:32;10.10;1.00
435;DHT22;204;48.942;9.256;2023-04-03T09:57:03;10.10;1.00
435;DHT22;204;48.942;9.256;2023-04-03T09:59:31;10.10;1.00
435;DHT22;204;48.942;9.256;2023-04-03T10:01:59;10.00;1.00
435;DHT22;204;48.942;9.256;2023-04-03T10:04:25;10.10;1.00
435;DHT22;204;48.942;9.256;2023-04-03T10:07:01;10.10;1.00
435;DHT22;204;48.942;9.256;2023-04-03T10:09:29;9.80;1.00
435;DHT22;204;48.942;9.256;2023-04-03T10:11:59;9.80;1.00
435;DHT22;204;48.942;9.256;2023-04-03T10:14:31;9.70;1.00
435;DHT22;204;48.942;9.256;2023-04-03T10:19:34;9.70;1.00
435;DHT22;204;48.942;9.256;2023-04-03T10:27:53;10.10;1.00
435;DHT22;204;48.942;9.256;2023-04-03T10:38:36;9.60;1.00
435;DHT22;204;48.942;9.256;2023-04-03T10:42:18;9.50;1.00
435;DHT22;204;48.942;9.256;2023-04-03T10:47:02;9.40;1.00
435;DHT22;204;48.942;9.256;2023-04-03T10:52:22;9.20;1.00
435;DHT22;204;48.942;9.256;2023-04-03T10:57:22;9.50;1.00
435;DHT22;204;48.942;9.256;2023-04-03T10:59:55;9.60;1.00
435;DHT22;204;48.942;9.256;2023-04-03T11:02:29;9.70;1.00
435;DHT22;204;48.942;9.256;2023-04-03T11:05:17;9.70;1.00
435;DHT22;204;48.942;9.256;2023-04-03T11:07:47;9.60;1.00
435;DHT22;204;48.942;9.256;2023-04-03T11:10:26;9.40;1.00
435;DHT22;204;48.942;9.256;2023-04-03T11:15:42;9.00;1.00
435;DHT22;204;48.942;9.256;2023-04-03T11:20:43;8.80;1.00
435;DHT22;204;48.942;9.256;2023-04-03T11:23:21;8.90;1.00
435;DHT22;204;48.942;9.256;2023-04-03T11:25:51;9.10;1.00
435;DHT22;204;48.942;9.256;2023-04-03T11:28:17;9.20;1.00
435;DHT22;204;48.942;9.256;2023-04-03T11:31:02;9.20;1.00
435;DHT22;204;48.942;9.256;2023-04-03T11:36:18;9.20;1.00
435;DHT22;204;48.942;9.256;2023-04-03T11:38:46;9.20;1.00
435;DHT22;204;48.942;9.256;2023-04-03T11:41:13;9.20;1.00
435;DHT22;204;48.942;9.256;2023-04-03T11:43:42;9.20;1.00
435;DHT22;204;48.942;9.256;2023-04-03T11:46:09;9.10;1.00
435;DHT22;204;48.942;9.256;2023-04-03T11:51:31;9.40;1.00
435;DHT22;204;48.942;9.256;2023-04-03T11:53:47;9.50;1.00
435;DHT22;204;48.942;9.256;2023-04-03T12:01:51;10.00;1.00
435;DHT22;204;48.942;9.256;2023-04-03T12:04:19;10.20;1.00
435;DHT22;204;48.942;9.256;2023-04-03T12:09:34;10.10;1.00
435;DHT22;204;48.942;9.256;2023-04-03T12:12:21;10.10;1.00
435;DHT22;204;48.942;9.256;2023-04-03T12:14:47;9.90;1.00
435;DHT22;204;48.942;9.256;2023-04-03T12:17:25;10.00;1.00
435;DHT22;204;48.942;9.256;2023-04-03T12:19:52;10.10;1.00
435;DHT22;204;48.942;9.256;2023-04-03T12:22:20;10.10;1.00
435;DHT22;204;48.942;9.256;2023-04-03T12:24:51;10.20;1.00
435;DHT22;204;48.942;9.256;2023-04-03T12:27:34;10.30;1.00
435;DHT22;204;48.942;9.256;2023-04-03T12:33:04;10.40;99.90
435;DHT22;204;48.942;9.256;2023-04-03T12:35:37;10.40;1.00
435;DHT22;204;48.942;9.256;2023-04-03T12:46:22;10.30;99.90
435;DHT22;204;48.942;9.256;2023-04-03T12:48:51;10.30;99.90
435;DHT22;204;48.942;9.256;2023-04-03T12:51:34;10.30;99.90
435;DHT22;204;48.942;9.256;2023-04-03T12:54:12;10.30;99.90
435;DHT22;204;48.942;9.256;2023-04-03T12:56:39;10.20;99.90
435;DHT22;204;48.942;9.256;2023-04-03T12:59:23;10.10;99.90
435;DHT22;204;48.942;9.256;2023-04-03T13:02:07;10.00;99.90
435;DHT22;204;48.942;9.256;2023-04-03T13:04:38;10.00;99.90
435;DHT22;204;48.942;9.256;2023-04-03T13:07:04;10.10;99.90
435;DHT22;204;48.942;9.256;2023-04-03T13:09:31;10.10;99.90
435;DHT22;204;48.942;9.256;2023-04-03T13:11:59;10.10;99.90
435;DHT22;204;48.942;9.256;2023-04-03T13:14:27;10.10;99.90
435;DHT22;204;48.942;9.256;2023-04-03T13:17:06;10.20;99.90
435;DHT22;204;48.942;9.256;2023-04-03T13:19:36;10.30;99.90
435;DHT22;204;48.942;9.256;2023-04-03T13:22:06;10.30;99.90
435;DHT22;204;48.942;9.256;2023-04-03T13:24:35;10.30;99.90
435;DHT22;204;48.942;9.256;2023-04-03T13:27:02;10.20;99.90
435;DHT22;204;48.942;9.256;2023-04-03T13:29:34;10.30;99.90
435;DHT22;204;48.942;9.256;2023-04-03T13:32:01;10.50;99.90
435;DHT22;204;48.942;9.256;2023-04-03T13:34:32;10.60;99.90
435;DHT22;204;48.942;9.256;2023-04-03T13:37:01;10.80;99.90
435;DHT22;204;48.942;9.256;2023-04-03T13:39:36;10.90;99.90
435;DHT22;204;48.942;9.256;2023-04-03T13:42:17;11.00;99.90
435;DHT22;204;48.942;9.256;2023-04-03T13:44:42;11.10;99.90
435;DHT22;204;48.942;9.256;2023-04-03T13:49:39;11.30;99.90
435;DHT22;204;48.942;9.256;2023-04-03T13:54:54;11.10;99.90
435;DHT22;204;48.942;9.256;2023-04-03T13:57:20;10.70;99.90
435;DHT22;204;48.942;9.256;2023-04-03T13:59:46;10.60;99.90
435;DHT22;204;48.942;9.256;2023-04-03T14:02:22;10.50;99.90
435;DHT22;204;48.942;9.256;2023-04-03T14:04:55;10.60;99.90
435;DHT22;204;48.942;9.256;2023-04-03T14:07:22;10.70;99.90
435;DHT22;204;48.942;9.256;2023-04-03T14:09:48;10.90;99.90
435;DHT22;204;48.942;9.256;2023-04-03T14:12:37;11.00;99.90
435;DHT22;204;48.942;9.256;2023-04-03T14:15:33;11.10;99.90
435;DHT22;204;48.942;9.256;2023-04-03T14:17:58;11.00;99.90
435;DHT22;204;48.942;9.256;2023-04-03T14:20:26;10.80;99.90
435;DHT22;204;48.942;9.256;2023-04-03T14:22:53;10.60;99.90
435;DHT22;204;48.942;9.256;2023-04-03T14:25:19;10.40;99.90
435;DHT22;204;48.942;9.256;2023-04-03T14:27:47;10.50;99.90
435;DHT22;204;48.942;9.256;2023-04-03T14:30:21;10.50;99.90
435;DHT22;204;48.942;9.256;2023-04-03T14:32:48;10.50;99.90
435;DHT22;204;48.942;9.256;2023-04-03T14:35:14;10.60;99.90
435;DHT22;204;48.942;9.256;2023-04-03T14:37:40;10.50;99.90
435;DHT22;204;48.942;9.256;2023-04-03T14:40:07;10.20;99.90
435;DHT22;204;48.942;9.256;2023-04-03T14:42:36;9.90;99.90
435;DHT22;204;48.942;9.256;2023-04-03T14:45:04;9.50;99.90
435;DHT22;204;48.942;9.256;2023-04-03T14:47:30;9.30;99.90
435;DHT22;204;48.942;9.256;2023-04-03T14:49:57;9.30;99.90
435;DHT22;204;48.942;9.256;2023-04-03T14:52:32;9.30;99.90
435;DHT22;204;48.942;9.256;2023-04-03T14:54:58;9.60;99.90
435;DHT22;204;48.942;9.256;2023-04-03T14:57:27;9.80;99.90
435;DHT22;204;48.942;9.256;2023-04-03T14:59:53;9.90;99.90
435;DHT22;204;48.942;9.256;2023-04-03T15:04:47;9.80;99.90
435;DHT22;204;48.942;9.256;2023-04-03T15:07:13;9.70;99.90
435;DHT22;204;48.942;9.256;2023-04-03T15:09:39;9.60;99.90
435;DHT22;204;48.942;9.256;2023-04-03T15:12:04;9.40;99.90
435;DHT22;204;48.942;9.256;2023-04-03T15:14:30;9.20;99.90
435;DHT22;204;48.942;9.256;2023-04-03T15:16:55;8.90;99.90
435;DHT22;204;48.942;9.256;2023-04-03T15:19:22;8.60;99.90
435;DHT22;204;48.942;9.256;2023-04-03T15:21:48;8.50;99.90
435;DHT22;204;48.942;9.256;2023-04-03T15:24:13;8.40;99.90
435;DHT22;204;48.942;9.256;2023-04-03T15:26:39;8.50;99.90
435;DHT22;204;48.942;9.256;2023-04-03T15:29:05;8.70;99.90
435;DHT22;204;48.942;9.256;2023-04-03T15:31:31;8.90;99.90
435;DHT22;204;48.942;9.256;2023-04-03T15:33:57;9.20;99.90
435;DHT22;204;48.942;9.256;2023-04-03T15:36:23;9.50;99.90
435;DHT22;204;48.942;9.256;2023-04-03T15:38:48;9.60;99.90
435;DHT22;204;48.942;9.256;2023-04-03T15:41:14;9.50;99.90
435;DHT22;204;48.942;9.256;2023-04-03T15:43:40;9.40;99.90
435;DHT22;204;48.942;9.256;2023-04-03T15:46:06;9.20;99.90
435;DHT22;204;48.942;9.256;2023-04-03T15:48:34;9.00;99.90
435;DHT22;204;48.942;9.256;2023-04-03T15:51:01;8.70;99.90
435;DHT22;204;48.942;9.256;2023-04-03T15:53:26;8.50;99.90
435;DHT22;204;48.942;9.256;2023-04-03T15:55:52;8.40;99.90
435;DHT22;204;48.942;9.256;2023-04-03T15:58:17;8.30;99.90
435;DHT22;204;48.942;9.256;2023-04-03T16:00:43;8.30;99.90
435;DHT22;204;48.942;9.256;2023-04-03T16:03:12;8.50;99.90
435;DHT22;204;48.942;9.256;2023-04-03T16:05:40;8.60;99.90
435;DHT22;204;48.942;9.256;2023-04-03T16:08:06;8.80;99.90
435;DHT22;204;48.942;9.256;2023-04-03T16:10:34;8.80;99.90
435;DHT22;204;48.942;9.256;2023-04-03T16:12:59;8.90;99.90
435;DHT22;204;48.942;9.256;2023-04-03T16:15:25;8.70;99.90
435;DHT22;204;48.942;9.256;2023-04-03T16:17:52;8.50;99.90
435;DHT22;204;48.942;9.256;2023-04-03T16:20:18;8.40;99.90
435;DHT22;204;48.942;9.256;2023-04-03T16:22:44;8.30;99.90
435;DHT22;204;48.942;9.256;2023-04-03T16:25:11;8.20;99.90
435;DHT22;204;48.942;9.256;2023-04-03T16:27:37;8.10;99.90
435;DHT22;204;48.942;9.256;2023-04-03T16:30:04;8.10;99.90
435;DHT22;204;48.942;9.256;2023-04-03T16:32:31;8.10;99.90
435;DHT22;204;48.942;9.256;2023-04-03T16:34:57;8.10;99.90
435;DHT22;204;48.942;9.256;2023-04-03T16:37:24;8.20;99.90
435;DHT22;204;48.942;9.256;2023-04-03T16:39:49;8.30;99.90
435;DHT22;204;48.942;9.256;2023-04-03T16:42:15;8.30;99.90
435;DHT22;204;48.942;9.256;2023-04-03T16:44:41;8.30;99.90
435;DHT22;204;48.942;9.256;2023-04-03T16:47:06;8.30;99.90
435;DHT22;204;48.942;9.256;2023-04-03T16:49:33;8.30;99.90
435;DHT22;204;48.942;9.256;2023-04-03T16:52:02;8.30;99.90
435;DHT22;204;48.942;9.256;2023-04-03T16:54:29;8.30;99.90
435;DHT22;204;48.942;9.256;2023-04-03T16:56:55;8.30;99.90
435;DHT22;204;48.942;9.256;2023-04-03T16:59:21;8.40;99.90
435;DHT22;204;48.942;9.256;2023-04-03T17:01:46;8.40;99.90
435;DHT22;204;48.942;9.256;2023-04-03T17:04:12;8.30;99.90
435;DHT22;204;48.942;9.256;2023-04-03T17:06:38;8.30;99.90
435;DHT22;204;48.942;9.256;2023-04-03T17:09:04;8.20;99.90
435;DHT22;204;48.942;9.256;2023-04-03T17:11:30;8.10;99.90
435;DHT22;204;48.942;9.256;2023-04-03T17:13:56;8.10;99.90
435;DHT22;204;48.942;9.256;2023-04-03T17:16:23;7.90;99.90
435;DHT22;204;48.942;9.256;2023-04-03T17:18:49;7.90;99.90
435;DHT22;204;48.942;9.256;2023-04-03T17:21:16;7.80;99.90
435;DHT22;204;48.942;9.256;2023-04-03T17:23:45;7.80;99.90
435;DHT22;204;48.942;9.256;2023-04-03T17:26:11;7.80;99.90
435;DHT22;204;48.942;9.256;2023-04-03T17:28:37;7.70;99.90
435;DHT22;204;48.942;9.256;2023-04-03T17:31:05;7.70;99.90
435;DHT22;204;48.942;9.256;2023-04-03T17:33:31;7.60;99.90
435;DHT22;204;48.942;9.256;2023-04-03T17:35:59;7.60;99.90
435;DHT22;204;48.942;9.256;2023-04-03T17:38:26;7.60;99.90
435;DHT22;204;48.942;9.256;2023-04-03T17:41:03;7.50;99.90
435;DHT22;204;48.942;9.256;2023-04-03T17:43:30;7.40;1.00
435;DHT22;204;48.942;9.256;2023-04-03T17:46:04;7.20;1.00
435;DHT22;204;48.942;9.256;2023-04-03T17:48:31;7.10;1.00
435;DHT22;204;48.942;9.256;2023-04-03T17:50:57;7.00;99.90
435;DHT22;204;48.942;9.256;2023-04-03T17:53:23;6.90;99.90
435;DHT22;204;48.942;9.256;2023-04-03T17:55:49;6.80;1.00
435;DHT22;204;48.942;9.256;2023-04-03T17:58:15;6.70;1.00
435;DHT22;204;48.942;9.256;2023-04-03T18:00:41;6.60;1.00
435;DHT22;204;48.942;9.256;2023-04-03T18:03:07;6.40;1.00
435;DHT22;204;48.942;9.256;2023-04-03T18:05:32;6.30;1.00
435;DHT22;204;48.942;9.256;2023-04-03T18:07:58;6.20;1.00
435;DHT22;204;48.942;9.256;2023-04-03T18:10:25;6.20;1.00
435;DHT22;204;48.942;9.256;2023-04-03T18:12:51;6.00;1.00
435;DHT22;204;48.942;9.256;2023-04-03T18:15:17;6.00;1.00
435;DHT22;204;48.942;9.256;2023-04-03T18:17:43;5.90;1.00
435;DHT22;204;48.942;9.256;2023-04-03T18:20:09;5.90;1.00
435;DHT22;204;48.942;9.256;2023-04-03T18:22:36;5.80;1.00
435;DHT22;204;48.942;9.256;2023-04-03T18:25:02;5.70;1.00
435;DHT22;204;48.942;9.256;2023-04-03T18:27:28;5.60;1.00
435;DHT22;204;48.942;9.256;2023-04-03T18:29:57;5.60;1.00